Time;durP1;ratioP1;P1;durP2;ratioP2;P2;SDS_P1;SDS_P2;PMS_P1;PMS_P2;Temp;Humidity;BMP_temperature;BMP_pressure;BME280_temperature;BME280_humidity;BME280_pressure;Samples;Min_cycle;Max_cycle;Signal;HPM_P1;HPM_P2
2023/06/04 00:00:25;;;;;;;12.30;4.90;;;;;;;;;;5014527;28;20045;-73
2023/06/04 00:02:51;;;;;;;11.63;4.35;;;;;;;;;;5053376;28;20044;-73
2023/06/04 00:05:17;;;;;;;13.95;4.00;;;;;;;;;;5071565;28;20047;-73
2023/06/04 00:07:43;;;;;;;11.20;4.30;;;;;;;;;;5071481;28;20052;-73
2023/06/04 00:10:10;;;;;;;11.70;4.63;;;;;;;;;;5032474;28;20517;-73
2023/06/04 00:12:36;;;;;;;13.35;4.53;;;;;;;;;;5032939;28;20065;-73
2023/06/04 00:15:02;;;;;;;10.40;4.22;;;;;;;;;;5038932;28;20155;-73
2023/06/04 00:17:28;;;;;;;11.18;4.32;;;;;;;;;;5038868;28;20053;-73
2023/06/04 00:19:54;;;;;;;12.40;4.65;;;;;;;;;;5037502;28;20056;-72
2023/06/04 00:22:21;;;;;;;13.60;5.13;;;;;;;;;;5020589;28;20049;-73
2023/06/04 00:24:47;;;;;;;10.10;5.00;;;;;;;;;;5035892;28;20049;-73
2023/06/04 00:27:13;;;;;;;14.38;5.45;;;;;;;;;;5038903;28;20067;-73
2023/06/04 00:29:39;;;;;;;12.18;5.32;;;;;;;;;;5038856;28;20049;-73
2023/06/04 00:32:05;;;;;;;12.32;4.60;;;;;;;;;;5041599;28;20153;-73
2023/06/04 00:34:31;;;;;;;13.25;4.60;;;;;;;;;;5043309;28;20049;-73
2023/06/04 00:36:57;;;;;;;14.10;5.10;;;;;;;;;;5039455;28;20128;-73
2023/06/04 00:39:23;;;;;;;11.45;4.65;;;;;;;;;;5020582;28;20049;-73
2023/06/04 00:41:49;;;;;;;15.27;5.15;;;;;;;;;;5038756;28;20041;-72
2023/06/04 00:44:16;;;;;;;16.48;5.72;;;;;;;;;;5037381;28;20071;-73
2023/06/04 00:46:45;;;;;;;14.50;5.72;;;;;;;;;;5038830;28;20057;-73
2023/06/04 00:49:12;;;;;;;15.95;6.40;;;;;;;;;;5020859;28;20129;-73
2023/06/04 00:51:38;;;;;;;11.68;6.32;;;;;;;;;;5020715;28;20056;-73
2023/06/04 00:54:08;;;;;;;15.45;6.43;;;;;;;;;;5038532;28;20046;-73
2023/06/04 00:56:35;;;;;;;14.05;5.93;;;;;;;;;;5038507;28;20429;-72
2023/06/04 00:59:01;;;;;;;11.38;5.53;;;;;;;;;;5038341;28;20037;-73
2023/06/04 01:01:49;;;;;;;13.52;6.05;;;;;;;;;;5054587;28;20041;-72
2023/06/04 01:04:22;;;;;;;13.05;5.60;;;;;;;;;;5060446;28;20049;-73
2023/06/04 01:06:51;;;;;;;14.90;5.95;;;;;;;;;;5078347;28;20501;-72
2023/06/04 01:09:17;;;;;;;14.15;5.47;;;;;;;;;;5042771;28;20080;-73
2023/06/04 01:11:43;;;;;;;13.68;5.68;;;;;;;;;;5037257;28;20046;-73
2023/06/04 01:14:10;;;;;;;12.98;6.30;;;;;;;;;;5038012;28;20371;-73
2023/06/04 01:16:44;;;;;;;17.45;6.03;;;;;;;;;;5037958;28;20045;-73
2023/06/04 01:19:24;;;;;;;15.60;6.07;;;;;;;;;;5037637;28;20038;-73
2023/06/04 01:21:51;;;;;;;16.98;7.38;;;;;;;;;;5038147;28;20053;-73
2023/06/04 01:24:18;;;;;;;14.10;6.20;;;;;;;;;;5037368;28;20417;-72
2023/06/04 01:26:44;;;;;;;15.35;6.07;;;;;;;;;;5035150;28;20067;-72
2023/06/04 01:29:10;;;;;;;14.27;6.30;;;;;;;;;;5035186;28;20050;-73
2023/06/04 01:31:37;;;;;;;16.90;5.78;;;;;;;;;;5034856;28;20048;-73
2023/06/04 01:34:03;;;;;;;16.50;5.57;;;;;;;;;;5022486;28;20044;-74
2023/06/04 01:36:29;;;;;;;10.77;5.32;;;;;;;;;;5073598;28;20032;-73
2023/06/04 01:38:55;;;;;;;15.35;5.78;;;;;;;;;;5063469;28;20044;-73
2023/06/04 01:41:21;;;;;;;15.27;5.95;;;;;;;;;;5067799;28;20037;-73
2023/06/04 01:43:47;;;;;;;15.82;6.25;;;;;;;;;;5054157;28;20136;-73
2023/06/04 01:46:13;;;;;;;14.15;6.00;;;;;;;;;;5053943;28;20074;-73
2023/06/04 01:48:40;;;;;;;13.38;5.55;;;;;;;;;;5063306;28;20322;-73
2023/06/04 01:51:06;;;;;;;13.45;5.88;;;;;;;;;;5057747;28;20045;-73
2023/06/04 01:53:32;;;;;;;14.07;5.72;;;;;;;;;;5052995;28;20059;-72
2023/06/04 01:55:58;;;;;;;16.95;6.35;;;;;;;;;;5069573;28;20053;-73
2023/06/04 01:58:27;;;;;;;13.98;5.65;;;;;;;;;;5053653;28;20439;-73
2023/06/04 02:00:59;;;;;;;16.08;6.18;;;;;;;;;;5069159;28;20040;-73
2023/06/04 02:03:25;;;;;;;18.55;6.53;;;;;;;;;;5069475;28;20116;-73
2023/06/04 02:05:51;;;;;;;15.88;6.78;;;;;;;;;;5036054;28;20049;-73
2023/06/04 02:08:21;;;;;;;15.65;6.63;;;;;;;;;;5050009;28;20056;-72
2023/06/04 02:10:47;;;;;;;13.10;6.57;;;;;;;;;;5049392;28;20184;-72
2023/06/04 02:13:14;;;;;;;13.85;6.28;;;;;;;;;;5057982;28;20044;-73
2023/06/04 02:15:40;;;;;;;13.80;6.30;;;;;;;;;;5053723;28;20044;-72
2023/06/04 02:18:17;;;;;;;15.25;6.90;;;;;;;;;;5073877;28;20094;-72
2023/06/04 02:20:46;;;;;;;17.90;6.90;;;;;;;;;;5055252;28;20056;-72
2023/06/04 02:23:13;;;;;;;16.40;5.80;;;;;;;;;;5056094;28;20036;-72
2023/06/04 02:25:39;;;;;;;12.35;5.90;;;;;;;;;;5073547;28;20048;-72
2023/06/04 02:28:05;;;;;;;13.60;6.68;;;;;;;;;;5073385;28;20041;-73
2023/06/04 02:30:31;;;;;;;14.95;6.88;;;;;;;;;;5057226;28;20549;-72
2023/06/04 02:33:00;;;;;;;14.02;6.55;;;;;;;;;;5067904;28;20098;-73
2023/06/04 02:35:26;;;;;;;14.77;6.75;;;;;;;;;;5065203;28;20044;-72
2023/06/04 02:37:52;;;;;;;14.52;6.63;;;;;;;;;;5072039;28;20489;-73
2023/06/04 02:40:18;;;;;;;15.00;6.85;;;;;;;;;;5072790;28;20044;-72
2023/06/04 02:42:45;;;;;;;11.55;5.78;;;;;;;;;;5039962;28;20048;-72
2023/06/04 02:45:11;;;;;;;16.92;6.93;;;;;;;;;;5053036;28;20044;-72
2023/06/04 02:47:37;;;;;;;16.45;6.50;;;;;;;;;;5071558;28;20493;-72
2023/06/04 02:50:04;;;;;;;13.90;6.35;;;;;;;;;;5072673;28;20409;-73
2023/06/04 02:52:30;;;;;;;14.32;6.57;;;;;;;;;;5073491;28;20055;-72
2023/06/04 02:54:57;;;;;;;15.70;6.05;;;;;;;;;;5072672;28;20119;-73
2023/06/04 02:57:23;;;;;;;17.70;6.32;;;;;;;;;;5072709;28;20082;-73
2023/06/04 02:59:49;;;;;;;14.68;6.47;;;;;;;;;;5071997;28;20354;-73
2023/06/04 03:02:15;;;;;;;13.73;6.25;;;;;;;;;;5055125;28;20421;-73
2023/06/04 03:04:44;;;;;;;16.98;6.18;;;;;;;;;;5052969;28;20044;-72
2023/06/04 03:07:11;;;;;;;12.57;5.93;;;;;;;;;;5061530;28;20110;-73
2023/06/04 03:09:37;;;;;;;13.18;5.93;;;;;;;;;;5057518;28;20054;-73
2023/06/04 03:12:03;;;;;;;15.07;5.68;;;;;;;;;;5038035;28;20128;-73
2023/06/04 03:14:33;;;;;;;12.18;5.70;;;;;;;;;;5035794;28;20077;-73
2023/06/04 03:17:07;;;;;;;17.80;5.85;;;;;;;;;;5033194;28;20094;-73
2023/06/04 03:19:37;;;;;;;15.80;6.38;;;;;;;;;;5032180;28;20088;-73
2023/06/04 03:22:05;;;;;;;12.70;5.90;;;;;;;;;;5015214;28;20045;-73
2023/06/04 03:24:33;;;;;;;13.50;6.28;;;;;;;;;;5058913;28;20055;-73
2023/06/04 03:26:59;;;;;;;16.90;6.65;;;;;;;;;;5072905;28;20041;-73
2023/06/04 03:29:25;;;;;;;12.10;5.80;;;;;;;;;;5054649;28;20190;-73
2023/06/04 03:31:51;;;;;;;13.10;6.55;;;;;;;;;;5072814;28;20127;-73
2023/06/04 03:34:17;;;;;;;21.15;6.53;;;;;;;;;;5054719;28;20134;-73
2023/06/04 03:36:44;;;;;;;13.07;5.80;;;;;;;;;;5071828;28;20493;-73
2023/06/04 03:39:10;;;;;;;13.43;6.07;;;;;;;;;;5072506;28;20465;-73
2023/06/04 03:41:36;;;;;;;15.15;6.90;;;;;;;;;;5072751;28;20115;-73
2023/06/04 03:44:02;;;;;;;14.07;5.90;;;;;;;;;;5072141;28;20083;-74
2023/06/04 03:46:33;;;;;;;16.15;6.72;;;;;;;;;;5071956;28;20086;-73
2023/06/04 03:48:59;;;;;;;14.65;6.05;;;;;;;;;;5042986;28;20053;-73
2023/06/04 03:51:25;;;;;;;12.65;6.10;;;;;;;;;;5057272;28;20044;-73
2023/06/04 03:53:51;;;;;;;15.20;5.90;;;;;;;;;;5075462;28;20049;-74
2023/06/04 03:56:17;;;;;;;14.02;6.78;;;;;;;;;;5073544;28;20044;-73
2023/06/04 03:58:43;;;;;;;11.35;6.35;;;;;;;;;;5055015;28;20036;-73
2023/06/04 04:01:10;;;;;;;11.98;5.95;;;;;;;;;;5065774;28;20099;-73
2023/06/04 04:03:36;;;;;;;14.60;5.75;;;;;;;;;;5051995;28;20045;-74
2023/06/04 04:06:03;;;;;;;12.82;6.10;;;;;;;;;;5055483;28;20053;-74
2023/06/04 04:08:31;;;;;;;14.63;6.35;;;;;;;;;;5060576;28;20042;-72
2023/06/04 04:10:58;;;;;;;14.57;6.30;;;;;;;;;;5014497;28;20041;-73
2023/06/04 04:13:24;;;;;;;16.67;6.20;;;;;;;;;;5039294;28;20124;-73
2023/06/04 04:15:53;;;;;;;10.80;5.90;;;;;;;;;;5034404;28;20037;-73
2023/06/04 04:18:19;;;;;;;15.35;6.10;;;;;;;;;;5033734;28;20116;-73
2023/06/04 04:20:46;;;;;;;15.57;6.47;;;;;;;;;;5034048;28;20098;-72
2023/06/04 04:23:12;;;;;;;14.98;5.90;;;;;;;;;;5052078;28;20033;-72
2023/06/04 04:25:39;;;;;;;12.00;5.93;;;;;;;;;;5052314;28;20405;-72
2023/06/04 04:28:08;;;;;;;13.95;6.03;;;;;;;;;;5052092;28;20041;-73
2023/06/04 04:30:35;;;;;;;11.15;5.57;;;;;;;;;;5034049;28;20370;-73
2023/06/04 04:33:01;;;;;;;12.30;5.55;;;;;;;;;;5052248;28;20049;-73
2023/06/04 04:35:28;;;;;;;15.85;6.07;;;;;;;;;;5034222;28;20045;-73
2023/06/04 04:37:54;;;;;;;15.32;6.07;;;;;;;;;;5052208;28;20045;-73
2023/06/04 04:40:21;;;;;;;13.85;5.93;;;;;;;;;;5033916;28;20072;-73
2023/06/04 04:42:47;;;;;;;12.02;5.85;;;;;;;;;;5034319;28;20079;-73
2023/06/04 04:45:13;;;;;;;11.95;5.88;;;;;;;;;;5051973;28;20041;-74
2023/06/04 04:47:39;;;;;;;10.68;6.47;;;;;;;;;;5034279;28;20051;-74
2023/06/04 04:50:06;;;;;;;15.45;7.40;;;;;;;;;;5033931;28;20052;-73
2023/06/04 04:52:32;;;;;;;17.02;7.03;;;;;;;;;;5051939;28;20516;-73
2023/06/04 04:54:58;;;;;;;14.00;7.43;;;;;;;;;;5033908;28;20131;-74
2023/06/04 04:57:27;;;;;;;11.45;8.05;;;;;;;;;;5051966;28;20048;-72
2023/06/04 04:59:53;;;;;;;16.15;7.93;;;;;;;;;;5052195;28;20037;-72
2023/06/04 05:02:19;;;;;;;14.15;7.72;;;;;;;;;;5070544;28;20086;-72
2023/06/04 05:04:45;;;;;;;18.83;8.80;;;;;;;;;;5075449;28;20047;-72
2023/06/04 05:07:11;;;;;;;13.77;8.60;;;;;;;;;;5075351;28;20473;-72
2023/06/04 05:09:37;;;;;;;16.38;9.00;;;;;;;;;;5026825;28;20054;-74
2023/06/04 05:12:03;;;;;;;17.40;9.07;;;;;;;;;;5054584;28;20048;-74
2023/06/04 05:14:29;;;;;;;16.27;8.98;;;;;;;;;;5037199;28;20048;-74
2023/06/04 05:16:58;;;;;;;17.30;9.10;;;;;;;;;;5055282;28;20048;-74
2023/06/04 05:19:24;;;;;;;18.05;9.18;;;;;;;;;;5070595;28;20098;-72
2023/06/04 05:21:50;;;;;;;12.75;8.43;;;;;;;;;;5054106;28;20074;-73
2023/06/04 05:24:16;;;;;;;16.33;8.73;;;;;;;;;;5051480;28;20052;-71
2023/06/04 05:26:43;;;;;;;14.60;8.63;;;;;;;;;;5068579;28;20403;-71
2023/06/04 05:29:09;;;;;;;17.35;7.78;;;;;;;;;;5069533;28;20045;-71
2023/06/04 05:31:36;;;;;;;13.98;7.32;;;;;;;;;;5034616;28;20041;-71
2023/06/04 05:34:04;;;;;;;14.55;6.60;;;;;;;;;;5053978;28;20116;-71
2023/06/04 05:36:31;;;;;;;12.55;6.68;;;;;;;;;;5035833;28;20041;-71
2023/06/04 05:38:57;;;;;;;13.55;6.43;;;;;;;;;;5054896;28;20041;-70
2023/06/04 05:41:24;;;;;;;20.10;6.78;;;;;;;;;;5036874;28;20097;-70
2023/06/04 05:43:50;;;;;;;11.50;6.05;;;;;;;;;;5055049;28;20060;-70
2023/06/04 05:46:16;;;;;;;12.20;5.68;;;;;;;;;;5036947;28;20079;-71
2023/06/04 05:48:42;;;;;;;12.85;5.38;;;;;;;;;;5052966;28;20524;-71
2023/06/04 05:51:08;;;;;;;8.65;5.40;;;;;;;;;;5053431;28;20077;-71
2023/06/04 05:53:34;;;;;;;13.43;5.75;;;;;;;;;;5054787;28;20040;-71
2023/06/04 05:56:00;;;;;;;12.35;4.90;;;;;;;;;;5054653;28;20052;-71
2023/06/04 05:58:26;;;;;;;9.52;4.78;;;;;;;;;;5054652;28;20118;-70
2023/06/04 06:00:53;;;;;;;9.18;4.32;;;;;;;;;;5036321;28;20033;-71
2023/06/04 06:03:19;;;;;;;12.32;4.25;;;;;;;;;;5036751;28;20382;-71
2023/06/04 06:05:45;;;;;;;12.27;4.40;;;;;;;;;;5036708;28;20041;-70
2023/06/04 06:08:11;;;;;;;11.10;4.07;;;;;;;;;;5051097;28;20108;-71
2023/06/04 06:10:37;;;;;;;14.63;4.75;;;;;;;;;;5016074;28;20053;-71
2023/06/04 06:13:03;;;;;;;17.30;4.75;;;;;;;;;;5034280;28;20513;-71
2023/06/04 06:15:29;;;;;;;11.98;3.88;;;;;;;;;;5034301;28;20045;-70
2023/06/04 06:17:55;;;;;;;11.52;3.88;;;;;;;;;;5034061;28;20156;-71
2023/06/04 06:20:22;;;;;;;12.02;4.70;;;;;;;;;;5034019;28;20049;-71
2023/06/04 06:22:48;;;;;;;12.85;4.47;;;;;;;;;;5039997;28;20041;-71
2023/06/04 06:25:15;;;;;;;14.55;4.82;;;;;;;;;;5053937;28;20114;-71
2023/06/04 06:27:41;;;;;;;12.07;4.55;;;;;;;;;;5053902;28;20446;-71
2023/06/04 06:30:08;;;;;;;11.50;3.80;;;;;;;;;;5053623;28;20047;-71
2023/06/04 06:32:35;;;;;;;13.63;4.43;;;;;;;;;;5068309;28;20068;-71
2023/06/04 06:35:01;;;;;;;11.52;4.03;;;;;;;;;;5053900;28;20452;-71
2023/06/04 06:37:27;;;;;;;12.48;3.90;;;;;;;;;;5053596;28;20049;-71
2023/06/04 06:39:53;;;;;;;10.90;4.18;;;;;;;;;;5051562;28;20077;-71
2023/06/04 06:42:19;;;;;;;9.52;3.95;;;;;;;;;;5034179;28;20081;-71
2023/06/04 06:44:45;;;;;;;11.90;3.90;;;;;;;;;;5035073;28;20573;-71
2023/06/04 06:47:14;;;;;;;11.10;4.05;;;;;;;;;;5053790;28;20076;-71
2023/06/04 06:49:41;;;;;;;9.02;3.88;;;;;;;;;;5053027;28;20118;-71
2023/06/04 06:52:07;;;;;;;10.40;4.00;;;;;;;;;;5053895;28;20048;-70
2023/06/04 06:54:33;;;;;;;8.77;3.47;;;;;;;;;;5035295;28;20045;-71
2023/06/04 06:56:59;;;;;;;9.70;3.00;;;;;;;;;;5053494;28;20350;-71
2023/06/04 06:59:25;;;;;;;8.35;3.38;;;;;;;;;;5052489;28;20041;-71
2023/06/04 07:01:51;;;;;;;10.35;2.90;;;;;;;;;;5035547;28;20056;-70
2023/06/04 07:04:17;;;;;;;10.50;3.58;;;;;;;;;;5053469;28;20128;-70
2023/06/04 07:06:43;;;;;;;9.35;2.75;;;;;;;;;;5054371;28;20080;-71
2023/06/04 07:09:09;;;;;;;9.32;3.22;;;;;;;;;;5055938;28;20496;-71
2023/06/04 07:11:36;;;;;;;6.38;2.40;;;;;;;;;;5037484;28;20136;-71
2023/06/04 07:14:02;;;;;;;6.05;2.55;;;;;;;;;;5052202;28;20462;-72
2023/06/04 07:16:28;;;;;;;6.38;2.40;;;;;;;;;;5035372;28;20059;-72
2023/06/04 07:18:54;;;;;;;6.88;2.53;;;;;;;;;;5052957;28;20041;-72
2023/06/04 07:21:23;;;;;;;6.72;2.83;;;;;;;;;;5053058;28;20041;-72
2023/06/04 07:23:50;;;;;;;9.07;2.50;;;;;;;;;;5052386;28;20200;-73
2023/06/04 07:26:17;;;;;;;5.13;1.95;;;;;;;;;;5052981;28;20127;-72
2023/06/04 07:28:43;;;;;;;5.78;2.30;;;;;;;;;;5052797;28;20064;-72
2023/06/04 07:31:10;;;;;;;7.28;2.42;;;;;;;;;;5052266;28;20094;-72
2023/06/04 07:33:43;;;;;;;8.00;2.70;;;;;;;;;;5052489;28;20052;-71
2023/06/04 07:36:12;;;;;;;5.70;2.40;;;;;;;;;;5035144;28;20033;-72
2023/06/04 07:38:38;;;;;;;5.72;2.55;;;;;;;;;;5033838;28;20047;-72
2023/06/04 07:41:05;;;;;;;7.43;2.50;;;;;;;;;;5034659;28;20477;-71
2023/06/04 07:43:31;;;;;;;5.95;2.30;;;;;;;;;;5051724;28;20487;-71
2023/06/04 07:45:57;;;;;;;5.45;2.15;;;;;;;;;;5052395;28;20490;-70
2023/06/04 07:48:30;;;;;;;8.20;2.58;;;;;;;;;;5017884;28;20434;-70
2023/06/04 07:50:56;;;;;;;6.75;2.20;;;;;;;;;;5065791;28;20107;-70
2023/06/04 07:53:22;;;;;;;5.85;2.22;;;;;;;;;;5059197;28;20053;-70
2023/06/04 07:55:48;;;;;;;7.65;2.38;;;;;;;;;;5014740;28;20060;-71
2023/06/04 07:58:14;;;;;;;7.40;2.47;;;;;;;;;;5014585;28;20041;-71
2023/06/04 08:00:41;;;;;;;5.78;2.50;;;;;;;;;;5032014;28;20053;-70
2023/06/04 08:03:07;;;;;;;9.63;2.72;;;;;;;;;;5039829;28;20051;-70
2023/06/04 08:05:33;;;;;;;6.00;2.50;;;;;;;;;;5052074;28;20469;-71
2023/06/04 08:08:00;;;;;;;6.28;2.45;;;;;;;;;;5033914;28;20057;-71
2023/06/04 08:10:26;;;;;;;6.43;2.45;;;;;;;;;;5051975;28;20464;-70
2023/06/04 08:12:52;;;;;;;6.60;2.40;;;;;;;;;;5052172;28;20484;-70
2023/06/04 08:15:18;;;;;;;5.40;2.28;;;;;;;;;;5016413;28;20041;-70
2023/06/04 08:17:44;;;;;;;5.55;2.38;;;;;;;;;;5031151;28;20107;-70
2023/06/04 08:20:10;;;;;;;5.97;2.10;;;;;;;;;;5014730;28;20132;-70
2023/06/04 08:22:36;;;;;;;6.90;2.30;;;;;;;;;;5032448;28;20378;-71
2023/06/04 08:25:04;;;;;;;5.72;2.30;;;;;;;;;;5047494;28;20060;-70
2023/06/04 08:27:30;;;;;;;5.90;2.47;;;;;;;;;;5014653;28;20403;-70
2023/06/04 08:29:57;;;;;;;9.25;2.45;;;;;;;;;;5032004;28;20053;-70
2023/06/04 08:32:23;;;;;;;6.63;2.50;;;;;;;;;;5031931;28;20123;-70
2023/06/04 08:34:49;;;;;;;7.43;2.40;;;;;;;;;;5055179;28;20073;-71
2023/06/04 08:37:16;;;;;;;6.75;2.55;;;;;;;;;;5054480;28;20098;-70
2023/06/04 08:39:42;;;;;;;6.53;2.60;;;;;;;;;;5054134;28;20048;-71
2023/06/04 08:42:10;;;;;;;6.95;2.53;;;;;;;;;;5055281;28;20048;-70
2023/06/04 08:44:36;;;;;;;6.13;2.17;;;;;;;;;;5033362;28;20034;-72
2023/06/04 08:47:04;;;;;;;9.27;2.53;;;;;;;;;;5018596;28;20182;-71
2023/06/04 08:49:33;;;;;;;7.13;2.53;;;;;;;;;;5037767;28;20045;-71
2023/06/04 08:51:59;;;;;;;5.80;2.30;;;;;;;;;;5054784;28;20053;-71
2023/06/04 08:54:26;;;;;;;5.18;2.15;;;;;;;;;;5052650;28;20033;-71
2023/06/04 08:56:52;;;;;;;5.55;2.22;;;;;;;;;;5053843;28;20167;-71
2023/06/04 08:59:18;;;;;;;8.35;2.60;;;;;;;;;;5051901;28;20110;-71
2023/06/04 09:01:45;;;;;;;6.57;2.20;;;;;;;;;;5017841;28;20077;-71
2023/06/04 09:04:11;;;;;;;6.00;2.20;;;;;;;;;;5017691;28;20138;-71
2023/06/04 09:06:39;;;;;;;4.53;2.10;;;;;;;;;;5034079;28;20534;-71
2023/06/04 09:09:07;;;;;;;7.25;2.17;;;;;;;;;;5046031;28;20045;-71
2023/06/04 09:11:38;;;;;;;6.80;2.25;;;;;;;;;;5069423;28;20084;-71
2023/06/04 09:14:08;;;;;;;4.30;2.00;;;;;;;;;;5037455;28;20130;-71
2023/06/04 09:16:42;;;;;;;4.13;2.05;;;;;;;;;;5054757;28;20056;-71
2023/06/04 09:19:08;;;;;;;7.27;2.00;;;;;;;;;;5036321;28;20130;-70
2023/06/04 09:21:34;;;;;;;5.07;2.05;;;;;;;;;;5054800;28;20041;-70
2023/06/04 09:24:00;;;;;;;4.97;2.00;;;;;;;;;;5037218;28;20049;-71
2023/06/04 09:26:26;;;;;;;5.38;2.17;;;;;;;;;;5055263;28;20490;-70
2023/06/04 09:28:55;;;;;;;4.47;1.95;;;;;;;;;;5053384;28;20049;-70
2023/06/04 09:31:26;;;;;;;4.18;1.65;;;;;;;;;;5053758;28;20374;-70
2023/06/04 09:33:52;;;;;;;7.30;1.92;;;;;;;;;;5039682;28;20045;-70
2023/06/04 09:36:18;;;;;;;7.47;2.10;;;;;;;;;;5034984;28;20044;-70
2023/06/04 09:38:45;;;;;;;5.50;2.13;;;;;;;;;;5016920;28;20068;-69
2023/06/04 09:41:21;;;;;;;6.47;2.10;;;;;;;;;;5036022;28;20077;-70
2023/06/04 09:43:47;;;;;;;6.05;1.90;;;;;;;;;;5036669;28;20063;-70
2023/06/04 09:46:14;;;;;;;6.82;2.40;;;;;;;;;;5054132;28;20087;-70
2023/06/04 09:48:40;;;;;;;4.38;2.03;;;;;;;;;;5036420;28;20513;-71
2023/06/04 09:51:19;;;;;;;4.82;1.92;;;;;;;;;;5035390;28;20052;-70
2023/06/04 09:53:54;;;;;;;5.90;2.30;;;;;;;;;;5017048;28;20416;-71
2023/06/04 09:56:21;;;;;;;6.13;2.25;;;;;;;;;;5053943;28;20509;-71
2023/06/04 09:58:48;;;;;;;5.22;1.90;;;;;;;;;;5036334;28;20053;-71
2023/06/04 10:01:14;;;;;;;5.15;2.03;;;;;;;;;;5054103;28;20059;-71
2023/06/04 10:03:43;;;;;;;4.68;1.77;;;;;;;;;;5054074;28;20052;-71
2023/06/04 10:06:09;;;;;;;5.25;2.08;;;;;;;;;;5036349;28;20389;-71
2023/06/04 10:08:35;;;;;;;4.82;2.30;;;;;;;;;;5029844;28;20053;-71
2023/06/04 10:11:02;;;;;;;4.00;1.90;;;;;;;;;;5050920;28;20041;-70
2023/06/04 10:13:47;;;;;;;5.65;2.08;;;;;;;;;;5036278;28;20083;-70
2023/06/04 10:16:13;;;;;;;4.60;1.92;;;;;;;;;;5054429;28;20091;-70
2023/06/04 10:18:40;;;;;;;7.30;2.10;;;;;;;;;;5052605;28;20087;-70
2023/06/04 10:21:06;;;;;;;5.55;1.95;;;;;;;;;;5054127;28;20441;-71
2023/06/04 10:23:32;;;;;;;3.78;1.90;;;;;;;;;;5053514;28;20055;-71
2023/06/04 10:25:59;;;;;;;3.90;1.70;;;;;;;;;;5035569;28;20045;-71
2023/06/04 10:28:26;;;;;;;3.90;1.83;;;;;;;;;;5036107;28;20053;-71
2023/06/04 10:30:52;;;;;;;6.85;2.08;;;;;;;;;;5053716;28;20045;-71
2023/06/04 10:33:24;;;;;;;5.10;1.80;;;;;;;;;;5054063;28;20048;-71
2023/06/04 10:35:51;;;;;;;4.97;2.10;;;;;;;;;;5053869;28;20083;-71
2023/06/04 10:38:18;;;;;;;3.47;1.75;;;;;;;;;;5053167;28;20091;-71
2023/06/04 10:40:45;;;;;;;4.53;1.92;;;;;;;;;;5052714;28;20056;-71
2023/06/04 10:43:12;;;;;;;3.97;1.90;;;;;;;;;;5053491;28;20049;-71
2023/06/04 10:45:38;;;;;;;5.88;2.10;;;;;;;;;;5035169;28;20135;-71
2023/06/04 10:48:05;;;;;;;4.80;1.83;;;;;;;;;;5053429;28;20052;-71
2023/06/04 10:50:33;;;;;;;4.45;1.85;;;;;;;;;;5052304;28;20044;-71
2023/06/04 10:53:02;;;;;;;3.55;1.77;;;;;;;;;;5052923;28;20045;-70
2023/06/04 10:55:29;;;;;;;4.35;1.90;;;;;;;;;;5044990;28;20050;-71
2023/06/04 10:57:56;;;;;;;6.22;1.73;;;;;;;;;;5028695;28;20144;-71
2023/06/04 11:00:22;;;;;;;5.22;2.13;;;;;;;;;;5035021;28;20037;-71
2023/06/04 11:02:57;;;;;;;5.07;1.80;;;;;;;;;;5034836;28;20053;-72
2023/06/04 11:05:34;;;;;;;6.35;1.90;;;;;;;;;;5050026;28;20084;-72
2023/06/04 11:08:01;;;;;;;5.05;1.90;;;;;;;;;;5050829;28;20053;-71
2023/06/04 11:10:33;;;;;;;6.80;1.98;;;;;;;;;;5051961;28;20052;-72
2023/06/04 11:12:59;;;;;;;4.00;1.70;;;;;;;;;;5053089;28;20084;-72
2023/06/04 11:15:25;;;;;;;6.10;1.77;;;;;;;;;;5034443;28;20044;-71
2023/06/04 11:18:00;;;;;;;5.32;1.75;;;;;;;;;;5051292;28;20033;-70
2023/06/04 11:20:27;;;;;;;4.00;1.70;;;;;;;;;;5051362;28;20044;-74
2023/06/04 11:22:57;;;;;;;5.10;1.90;;;;;;;;;;5067261;28;20492;-76
2023/06/04 11:25:25;;;;;;;3.88;1.63;;;;;;;;;;5052255;28;20102;-75
2023/06/04 11:27:52;;;;;;;4.13;1.50;;;;;;;;;;5067052;28;20079;-76
2023/06/04 11:30:18;;;;;;;4.65;1.85;;;;;;;;;;5052405;28;20204;-75
2023/06/04 11:32:44;;;;;;;4.80;1.60;;;;;;;;;;5068110;28;20041;-76
2023/06/04 11:35:11;;;;;;;4.22;1.70;;;;;;;;;;5051072;28;20485;-76
2023/06/04 11:37:37;;;;;;;5.03;1.80;;;;;;;;;;5052670;28;20124;-76
2023/06/04 11:40:06;;;;;;;3.85;1.80;;;;;;;;;;5052557;28;20036;-75
2023/06/04 11:42:33;;;;;;;4.75;1.80;;;;;;;;;;5052498;28;20145;-76
2023/06/04 11:44:59;;;;;;;4.20;1.70;;;;;;;;;;5052440;28;20048;-76
2023/06/04 11:47:25;;;;;;;4.40;1.70;;;;;;;;;;5052436;28;20103;-76
2023/06/04 11:49:56;;;;;;;3.33;1.50;;;;;;;;;;5052258;28;20037;-75
2023/06/04 11:52:22;;;;;;;4.40;1.80;;;;;;;;;;5052457;28;20106;-75
2023/06/04 11:54:48;;;;;;;4.75;1.95;;;;;;;;;;5050836;28;20052;-75
2023/06/04 11:57:14;;;;;;;4.90;1.80;;;;;;;;;;5034829;28;20119;-74
2023/06/04 11:59:40;;;;;;;3.33;1.60;;;;;;;;;;5051851;28;20040;-75
2023/06/04 12:02:09;;;;;;;4.90;1.92;;;;;;;;;;5052261;28;20065;-74
2023/06/04 12:04:35;;;;;;;4.03;1.70;;;;;;;;;;5051901;28;20132;-75
2023/06/04 12:07:04;;;;;;;3.78;1.75;;;;;;;;;;5052371;28;20056;-76
2023/06/04 12:09:40;;;;;;;4.32;1.80;;;;;;;;;;5037569;28;20053;-75
2023/06/04 12:12:07;;;;;;;5.47;1.67;;;;;;;;;;5032293;28;20381;-76
2023/06/04 12:14:33;;;;;;;4.10;1.80;;;;;;;;;;5031937;28;20205;-76
2023/06/04 12:17:02;;;;;;;3.55;1.60;;;;;;;;;;5030979;28;20037;-76
2023/06/04 12:19:29;;;;;;;3.50;1.55;;;;;;;;;;5045155;28;20037;-75
2023/06/04 12:22:05;;;;;;;3.85;1.55;;;;;;;;;;5031170;28;20049;-75
2023/06/04 12:24:34;;;;;;;2.85;1.60;;;;;;;;;;5032072;28;20133;-75
2023/06/04 12:27:08;;;;;;;4.47;1.40;;;;;;;;;;5032304;28;20049;-75
2023/06/04 12:29:34;;;;;;;3.35;1.60;;;;;;;;;;5031931;28;20053;-76
2023/06/04 12:32:05;;;;;;;3.30;1.70;;;;;;;;;;5032028;28;20452;-75
2023/06/04 12:34:32;;;;;;;3.25;1.58;;;;;;;;;;5031963;28;20041;-75
2023/06/04 12:36:58;;;;;;;3.67;1.60;;;;;;;;;;5030717;28;20049;-76
2023/06/04 12:39:24;;;;;;;3.90;1.58;;;;;;;;;;5047238;28;20094;-76
2023/06/04 12:41:50;;;;;;;3.20;1.60;;;;;;;;;;5032159;28;20046;-76
2023/06/04 12:44:16;;;;;;;4.30;1.88;;;;;;;;;;5031730;28;20037;-76
2023/06/04 12:46:42;;;;;;;7.07;1.80;;;;;;;;;;5032124;28;20041;-76
2023/06/04 12:49:08;;;;;;;4.22;1.63;;;;;;;;;;5031867;28;20037;-76
2023/06/04 12:51:34;;;;;;;8.77;1.80;;;;;;;;;;5031739;28;20045;-75
2023/06/04 12:54:00;;;;;;;3.45;1.80;;;;;;;;;;5030577;28;20564;-76
2023/06/04 12:56:26;;;;;;;2.92;1.70;;;;;;;;;;5013691;28;20141;-76
2023/06/04 12:58:52;;;;;;;3.95;1.77;;;;;;;;;;5031765;28;20045;-76
2023/06/04 13:01:18;;;;;;;4.55;1.80;;;;;;;;;;5031551;28;20141;-75
2023/06/04 13:03:44;;;;;;;4.65;1.80;;;;;;;;;;5032012;28;20037;-75
2023/06/04 13:06:10;;;;;;;4.85;1.90;;;;;;;;;;5014012;28;20061;-75
2023/06/04 13:08:37;;;;;;;3.40;1.65;;;;;;;;;;5038054;28;20040;-75
2023/06/04 13:11:04;;;;;;;3.47;1.63;;;;;;;;;;5033501;28;20052;-75
2023/06/04 13:13:30;;;;;;;5.25;1.95;;;;;;;;;;5050526;28;20051;-75
2023/06/04 13:15:56;;;;;;;5.78;1.80;;;;;;;;;;5050970;28;20052;-76
2023/06/04 13:18:23;;;;;;;3.55;1.80;;;;;;;;;;5051651;28;20052;-76
2023/06/04 13:20:49;;;;;;;4.07;1.70;;;;;;;;;;5034049;28;20056;-77
2023/06/04 13:23:15;;;;;;;5.15;1.90;;;;;;;;;;5054896;28;20048;-76
2023/06/04 13:25:41;;;;;;;4.65;1.80;;;;;;;;;;5055161;28;20052;-76
2023/06/04 13:28:10;;;;;;;6.72;1.85;;;;;;;;;;5055057;28;20052;-76
2023/06/04 13:30:37;;;;;;;5.38;2.00;;;;;;;;;;5054829;28;20049;-75
2023/06/04 13:33:03;;;;;;;4.88;1.90;;;;;;;;;;5037163;28;20049;-74
2023/06/04 13:35:29;;;;;;;4.38;1.80;;;;;;;;;;5054869;28;20473;-74
2023/06/04 13:37:56;;;;;;;4.70;2.00;;;;;;;;;;5055036;28;20041;-75
2023/06/04 13:40:22;;;;;;;4.97;1.58;;;;;;;;;;5036616;28;20081;-76
2023/06/04 13:42:48;;;;;;;4.47;1.95;;;;;;;;;;5036965;28;20103;-76
2023/06/04 13:45:14;;;;;;;4.80;2.00;;;;;;;;;;5054532;28;20128;-76
2023/06/04 13:47:40;;;;;;;4.40;1.80;;;;;;;;;;5036897;28;20397;-76
2023/06/04 13:50:06;;;;;;;3.75;1.70;;;;;;;;;;5054665;28;20052;-75
2023/06/04 13:52:32;;;;;;;6.05;2.00;;;;;;;;;;5054721;28;20051;-76
2023/06/04 13:54:58;;;;;;;5.18;1.80;;;;;;;;;;5054588;28;20095;-76
2023/06/04 13:57:25;;;;;;;5.07;2.10;;;;;;;;;;5054704;28;20106;-75
2023/06/04 13:59:51;;;;;;;5.07;2.05;;;;;;;;;;5054126;28;20049;-75
2023/06/04 14:02:17;;;;;;;4.90;1.80;;;;;;;;;;5054386;28;20106;-75
2023/06/04 14:04:43;;;;;;;6.40;2.10;;;;;;;;;;5054158;28;20033;-75
2023/06/04 14:07:10;;;;;;;4.85;1.73;;;;;;;;;;5036591;28;20464;-75
2023/06/04 14:09:36;;;;;;;4.38;1.95;;;;;;;;;;5039283;28;20042;-75
2023/06/04 14:12:02;;;;;;;4.05;1.88;;;;;;;;;;5048456;28;20379;-75
2023/06/04 14:14:36;;;;;;;5.20;1.88;;;;;;;;;;5033976;28;20048;-75
2023/06/04 14:17:02;;;;;;;5.25;1.88;;;;;;;;;;5016568;28;20525;-75
2023/06/04 14:19:28;;;;;;;6.95;2.05;;;;;;;;;;5030448;28;20045;-76
2023/06/04 14:21:54;;;;;;;6.28;1.88;;;;;;;;;;5032614;28;20049;-76
2023/06/04 14:24:20;;;;;;;4.70;1.80;;;;;;;;;;5033112;28;20065;-75
2023/06/04 14:26:46;;;;;;;2.92;1.50;;;;;;;;;;5034047;28;20045;-75
2023/06/04 14:29:13;;;;;;;4.82;1.80;;;;;;;;;;5033985;28;20051;-75
2023/06/04 14:31:39;;;;;;;5.90;1.90;;;;;;;;;;5033553;28;20115;-76
2023/06/04 14:34:07;;;;;;;4.90;1.80;;;;;;;;;;5034148;28;20063;-76